sensor_id;sensor_type;location;lat;lon;timestamp;pressure;altitude;pressure_sealevel;temperature;humidity
2397;BME280;1209;48.410;9.054;2023-04-21T00:00:57;95845.44;;;6.61;100.00
2397;BME280;1209;48.410;9.054;2023-04-21T00:03:24;95847.09;;;6.62;100.00
2397;BME280;1209;48.410;9.054;2023-04-21T00:05:50;95845.41;;;6.37;100.00
2397;BME280;1209;48.410;9.054;2023-04-21T00:08:16;95845.09;;;6.40;100.00
2397;BME280;1209;48.410;9.054;2023-04-21T00:10:42;95833.44;;;6.44;100.00
2397;BME280;1209;48.410;9.054;2023-04-21T00:13:08;95834.56;;;6.42;100.00
2397;BME280;1209;48.410;9.054;2023-04-21T00:15:33;95833.91;;;6.48;100.00
2397;BME280;1209;48.410;9.054;2023-04-21T00:17:59;95831.28;;;6.15;100.00
2397;BME280;1209;48.410;9.054;2023-04-21T00:20:24;95826.19;;;6.06;100.00
2397;BME280;1209;48.410;9.054;2023-04-21T00:22:53;95823.59;;;6.06;100.00
2397;BME280;1209;48.410;9.054;2023-04-21T00:25:19;95814.75;;;6.16;100.00
2397;BME280;1209;48.410;9.054;2023-04-21T00:27:44;95816.81;;;6.13;100.00
2397;BME280;1209;48.410;9.054;2023-04-21T00:30:10;95809.69;;;6.15;100.00
2397;BME280;1209;48.410;9.054;2023-04-21T00:32:35;95816.78;;;6.05;100.00
2397;BME280;1209;48.410;9.054;2023-04-21T00:35:01;95823.75;;;6.04;100.00
2397;BME280;1209;48.410;9.054;2023-04-21T00:37:26;95821.16;;;6.04;100.00
2397;BME280;1209;48.410;9.054;2023-04-21T00:39:51;95819.22;;;5.98;100.00
2397;BME280;1209;48.410;9.054;2023-04-21T00:42:17;95817.25;;;5.92;100.00
2397;BME280;1209;48.410;9.054;2023-04-21T00:44:42;95815.00;;;5.97;100.00
2397;BME280;1209;48.410;9.054;2023-04-21T00:47:08;95809.53;;;5.74;100.00
2397;BME280;1209;48.410;9.054;2023-04-21T00:49:33;95805.47;;;5.37;100.00
2397;BME280;1209;48.410;9.054;2023-04-21T00:51:59;95801.56;;;5.33;100.00
2397;BME280;1209;48.410;9.054;2023-04-21T00:54:26;95799.78;;;5.34;100.00
2397;BME280;1209;48.410;9.054;2023-04-21T00:56:52;95799.19;;;5.40;100.00
2397;BME280;1209;48.410;9.054;2023-04-21T00:59:19;95789.41;;;5.26;100.00
2397;BME280;1209;48.410;9.054;2023-04-21T01:01:45;95799.50;;;5.37;100.00
2397;BME280;1209;48.410;9.054;2023-04-21T01:04:10;95804.16;;;5.33;100.00
2397;BME280;1209;48.410;9.054;2023-04-21T01:06:36;95802.84;;;5.29;100.00
2397;BME280;1209;48.410;9.054;2023-04-21T01:09:01;95800.22;;;5.21;100.00
2397;BME280;1209;48.410;9.054;2023-04-21T01:11:29;95803.06;;;5.18;100.00
2397;BME280;1209;48.410;9.054;2023-04-21T01:13:55;95801.69;;;5.24;100.00
2397;BME280;1209;48.410;9.054;2023-04-21T01:16:21;95799.09;;;5.24;100.00
2397;BME280;1209;48.410;9.054;2023-04-21T01:18:48;95800.53;;;5.00;100.00
2397;BME280;1209;48.410;9.054;2023-04-21T01:21:15;95802.78;;;4.95;100.00
2397;BME280;1209;48.410;9.054;2023-04-21T01:23:41;95805.66;;;4.92;100.00
2397;BME280;1209;48.410;9.054;2023-04-21T01:26:07;95807.19;;;5.03;100.00
2397;BME280;1209;48.410;9.054;2023-04-21T01:28:33;95804.31;;;5.06;100.00
2397;BME280;1209;48.410;9.054;2023-04-21T01:30:58;95810.59;;;5.03;100.00
2397;BME280;1209;48.410;9.054;2023-04-21T01:33:24;95801.75;;;5.14;100.00
2397;BME280;1209;48.410;9.054;2023-04-21T01:35:49;95805.97;;;4.89;100.00
2397;BME280;1209;48.410;9.054;2023-04-21T01:38:15;95816.31;;;4.71;100.00
2397;BME280;1209;48.410;9.054;2023-04-21T01:40:52;95815.44;;;4.63;100.00
2397;BME280;1209;48.410;9.054;2023-04-21T01:43:20;95808.81;;;4.60;100.00
2397;BME280;1209;48.410;9.054;2023-04-21T01:45:47;95808.00;;;4.60;100.00
2397;BME280;1209;48.410;9.054;2023-04-21T01:48:13;95807.41;;;4.48;100.00
2397;BME280;1209;48.410;9.054;2023-04-21T01:50:38;95810.00;;;4.48;100.00
2397;BME280;1209;48.410;9.054;2023-04-21T01:53:04;95805.56;;;4.40;100.00
2397;BME280;1209;48.410;9.054;2023-04-21T01:55:29;95804.97;;;4.47;100.00
2397;BME280;1209;48.410;9.054;2023-04-21T01:57:54;95808.88;;;4.51;100.00
2397;BME280;1209;48.410;9.054;2023-04-21T02:00:22;95807.78;;;4.35;100.00
2397;BME280;1209;48.410;9.054;2023-04-21T02:02:47;95809.47;;;4.45;100.00
2397;BME280;1209;48.410;9.054;2023-04-21T02:05:13;95806.59;;;4.48;100.00
2397;BME280;1209;48.410;9.054;2023-04-21T02:07:39;95817.38;;;4.61;100.00
2397;BME280;1209;48.410;9.054;2023-04-21T02:10:04;95820.56;;;4.55;100.00
2397;BME280;1209;48.410;9.054;2023-04-21T02:12:30;95823.59;;;4.50;100.00
2397;BME280;1209;48.410;9.054;2023-04-21T02:14:55;95824.63;;;4.39;100.00
2397;BME280;1209;48.410;9.054;2023-04-21T02:17:21;95823.56;;;4.15;100.00
2397;BME280;1209;48.410;9.054;2023-04-21T02:19:46;95816.44;;;4.26;100.00
2397;BME280;1209;48.410;9.054;2023-04-21T02:22:12;95813.53;;;4.29;100.00
2397;BME280;1209;48.410;9.054;2023-04-21T02:24:38;95814.22;;;4.31;100.00
2397;BME280;1209;48.410;9.054;2023-04-21T02:27:04;95832.31;;;4.04;100.00
2397;BME280;1209;48.410;9.054;2023-04-21T02:29:30;95815.66;;;4.16;100.00
2397;BME280;1209;48.410;9.054;2023-04-21T02:31:55;95824.22;;;4.17;100.00
2397;BME280;1209;48.410;9.054;2023-04-21T02:34:21;95827.75;;;3.98;100.00
2397;BME280;1209;48.410;9.054;2023-04-21T02:36:46;95835.88;;;4.03;100.00
2397;BME280;1209;48.410;9.054;2023-04-21T02:39:12;95828.84;;;3.95;100.00
2397;BME280;1209;48.410;9.054;2023-04-21T02:41:38;95834.59;;;3.89;100.00
2397;BME280;1209;48.410;9.054;2023-04-21T02:44:03;95819.16;;;3.70;100.00
2397;BME280;1209;48.410;9.054;2023-04-21T02:46:28;95815.88;;;3.77;100.00
2397;BME280;1209;48.410;9.054;2023-04-21T02:48:55;95812.97;;;3.63;100.00
2397;BME280;1209;48.410;9.054;2023-04-21T02:51:20;95815.19;;;3.75;100.00
2397;BME280;1209;48.410;9.054;2023-04-21T02:53:45;95810.31;;;3.72;100.00
2397;BME280;1209;48.410;9.054;2023-04-21T02:56:10;95805.06;;;3.64;100.00
2397;BME280;1209;48.410;9.054;2023-04-21T02:58:36;95811.25;;;3.81;100.00
2397;BME280;1209;48.410;9.054;2023-04-21T03:01:03;95811.72;;;3.67;100.00
2397;BME280;1209;48.410;9.054;2023-04-21T03:03:29;95806.53;;;3.67;100.00
2397;BME280;1209;48.410;9.054;2023-04-21T03:05:59;95805.88;;;3.65;100.00
2397;BME280;1209;48.410;9.054;2023-04-21T03:08:24;95810.31;;;3.72;100.00
2397;BME280;1209;48.410;9.054;2023-04-21T03:10:50;95814.09;;;3.78;100.00
2397;BME280;1209;48.410;9.054;2023-04-21T03:13:15;95813.84;;;3.81;100.00
2397;BME280;1209;48.410;9.054;2023-04-21T03:15:41;95817.91;;;3.84;100.00
2397;BME280;1209;48.410;9.054;2023-04-21T03:18:06;95814.44;;;3.93;100.00
2397;BME280;1209;48.410;9.054;2023-04-21T03:20:32;95807.06;;;3.98;100.00
2397;BME280;1209;48.410;9.054;2023-04-21T03:22:57;95802.81;;;4.06;100.00
2397;BME280;1209;48.410;9.054;2023-04-21T03:25:22;95805.91;;;4.10;100.00
2397;BME280;1209;48.410;9.054;2023-04-21T03:27:48;95804.28;;;4.09;100.00
2397;BME280;1209;48.410;9.054;2023-04-21T03:30:13;95806.19;;;4.07;100.00
2397;BME280;1209;48.410;9.054;2023-04-21T03:32:39;95813.56;;;4.02;100.00
2397;BME280;1209;48.410;9.054;2023-04-21T03:35:04;95809.63;;;3.80;100.00
2397;BME280;1209;48.410;9.054;2023-04-21T03:37:29;95804.47;;;3.80;100.00
2397;BME280;1209;48.410;9.054;2023-04-21T03:39:55;95802.56;;;3.82;100.00
2397;BME280;1209;48.410;9.054;2023-04-21T03:42:21;95800.78;;;3.83;100.00
2397;BME280;1209;48.410;9.054;2023-04-21T03:44:46;95799.84;;;3.74;100.00
2397;BME280;1209;48.410;9.054;2023-04-21T03:47:11;95808.13;;;3.77;100.00
2397;BME280;1209;48.410;9.054;2023-04-21T03:49:36;95799.69;;;3.75;100.00
2397;BME280;1209;48.410;9.054;2023-04-21T03:52:02;95799.09;;;3.91;100.00
2397;BME280;1209;48.410;9.054;2023-04-21T03:54:27;95802.03;;;3.78;100.00
2397;BME280;1209;48.410;9.054;2023-04-21T03:56:53;95797.56;;;3.71;100.00
2397;BME280;1209;48.410;9.054;2023-04-21T03:59:18;95799.69;;;3.75;100.00
2397;BME280;1209;48.410;9.054;2023-04-21T04:01:43;95787.22;;;3.71;100.00
2397;BME280;1209;48.410;9.054;2023-04-21T04:04:09;95798.91;;;3.75;100.00
2397;BME280;1209;48.410;9.054;2023-04-21T04:06:34;95804.50;;;3.70;100.00
2397;BME280;1209;48.410;9.054;2023-04-21T04:09:00;95797.78;;;3.77;100.00
2397;BME280;1209;48.410;9.054;2023-04-21T04:11:29;95806.69;;;3.65;100.00
2397;BME280;1209;48.410;9.054;2023-04-21T04:13:55;95806.97;;;3.62;100.00
2397;BME280;1209;48.410;9.054;2023-04-21T04:16:20;95803.41;;;3.45;100.00
2397;BME280;1209;48.410;9.054;2023-04-21T04:18:46;95797.75;;;3.32;100.00
2397;BME280;1209;48.410;9.054;2023-04-21T04:21:11;95792.16;;;3.37;100.00
2397;BME280;1209;48.410;9.054;2023-04-21T04:23:36;95793.13;;;3.36;100.00
2397;BME280;1209;48.410;9.054;2023-04-21T04:26:02;95795.69;;;3.26;100.00
2397;BME280;1209;48.410;9.054;2023-04-21T04:28:30;95803.97;;;3.30;100.00
2397;BME280;1209;48.410;9.054;2023-04-21T04:30:55;95802.75;;;3.34;100.00
2397;BME280;1209;48.410;9.054;2023-04-21T04:33:20;95808.16;;;3.40;100.00
2397;BME280;1209;48.410;9.054;2023-04-21T04:35:46;95797.47;;;3.26;100.00
2397;BME280;1209;48.410;9.054;2023-04-21T04:38:12;95800.34;;;3.23;100.00
2397;BME280;1209;48.410;9.054;2023-04-21T04:40:39;95805.34;;;3.34;100.00
2397;BME280;1209;48.410;9.054;2023-04-21T04:43:04;95818.91;;;3.26;100.00
2397;BME280;1209;48.410;9.054;2023-04-21T04:45:30;95817.97;;;3.37;100.00
2397;BME280;1209;48.410;9.054;2023-04-21T04:47:57;95818.06;;;3.45;100.00
2397;BME280;1209;48.410;9.054;2023-04-21T04:50:23;95819.25;;;3.51;100.00
2397;BME280;1209;48.410;9.054;2023-04-21T04:52:48;95810.72;;;3.50;100.00
2397;BME280;1209;48.410;9.054;2023-04-21T04:55:14;95820.88;;;3.52;100.00
2397;BME280;1209;48.410;9.054;2023-04-21T04:57:39;95817.22;;;3.54;100.00
2397;BME280;1209;48.410;9.054;2023-04-21T05:00:06;95820.47;;;3.56;100.00
2397;BME280;1209;48.410;9.054;2023-04-21T05:02:35;95822.03;;;3.67;100.00
2397;BME280;1209;48.410;9.054;2023-04-21T05:05:01;95834.41;;;3.63;100.00
2397;BME280;1209;48.410;9.054;2023-04-21T05:07:26;95826.81;;;3.62;100.00
2397;BME280;1209;48.410;9.054;2023-04-21T05:09:51;95828.78;;;3.50;100.00
2397;BME280;1209;48.410;9.054;2023-04-21T05:12:17;95831.22;;;3.52;100.00
2397;BME280;1209;48.410;9.054;2023-04-21T05:14:42;95819.59;;;3.38;100.00
2397;BME280;1209;48.410;9.054;2023-04-21T05:17:07;95803.16;;;3.29;100.00
2397;BME280;1209;48.410;9.054;2023-04-21T05:19:36;95808.28;;;3.48;100.00
2397;BME280;1209;48.410;9.054;2023-04-21T05:22:02;95816.53;;;3.52;100.00
2397;BME280;1209;48.410;9.054;2023-04-21T05:24:31;95817.88;;;3.56;100.00
2397;BME280;1209;48.410;9.054;2023-04-21T05:26:56;95820.66;;;3.45;100.00
2397;BME280;1209;48.410;9.054;2023-04-21T05:29:21;95828.16;;;3.38;100.00
2397;BME280;1209;48.410;9.054;2023-04-21T05:31:47;95846.34;;;3.37;100.00
2397;BME280;1209;48.410;9.054;2023-04-21T05:34:12;95844.06;;;3.34;100.00
2397;BME280;1209;48.410;9.054;2023-04-21T05:36:40;95852.47;;;3.36;100.00
2397;BME280;1209;48.410;9.054;2023-04-21T05:39:06;95851.22;;;3.30;100.00
2397;BME280;1209;48.410;9.054;2023-04-21T05:41:31;95844.31;;;3.31;100.00
2397;BME280;1209;48.410;9.054;2023-04-21T05:43:56;95819.06;;;3.34;100.00
2397;BME280;1209;48.410;9.054;2023-04-21T05:46:21;95826.88;;;3.05;100.00
2397;BME280;1209;48.410;9.054;2023-04-21T05:48:47;95815.25;;;3.29;100.00
2397;BME280;1209;48.410;9.054;2023-04-21T05:51:13;95831.44;;;3.58;100.00
2397;BME280;1209;48.410;9.054;2023-04-21T05:53:41;95816.63;;;3.60;100.00
2397;BME280;1209;48.410;9.054;2023-04-21T05:56:10;95811.22;;;3.54;100.00
2397;BME280;1209;48.410;9.054;2023-04-21T05:58:36;95828.22;;;3.84;100.00
2397;BME280;1209;48.410;9.054;2023-04-21T06:01:01;95835.03;;;3.75;100.00
2397;BME280;1209;48.410;9.054;2023-04-21T06:03:29;95830.97;;;3.82;100.00
2397;BME280;1209;48.410;9.054;2023-04-21T06:05:55;95832.16;;;3.78;100.00
2397;BME280;1209;48.410;9.054;2023-04-21T06:08:21;95825.53;;;3.75;100.00
2397;BME280;1209;48.410;9.054;2023-04-21T06:10:46;95830.06;;;3.64;100.00
2397;BME280;1209;48.410;9.054;2023-04-21T06:13:12;95830.88;;;3.64;100.00
2397;BME280;1209;48.410;9.054;2023-04-21T06:15:37;95830.97;;;3.45;100.00
2397;BME280;1209;48.410;9.054;2023-04-21T06:18:03;95824.44;;;3.51;100.00
2397;BME280;1209;48.410;9.054;2023-04-21T06:20:28;95829.34;;;3.44;100.00
2397;BME280;1209;48.410;9.054;2023-04-21T06:22:53;95829.72;;;3.49;100.00
2397;BME280;1209;48.410;9.054;2023-04-21T06:25:19;95831.59;;;3.57;100.00
2397;BME280;1209;48.410;9.054;2023-04-21T06:27:44;95836.63;;;3.58;100.00
2397;BME280;1209;48.410;9.054;2023-04-21T06:30:10;95832.94;;;3.61;100.00
2397;BME280;1209;48.410;9.054;2023-04-21T06:32:36;95831.66;;;3.74;100.00
2397;BME280;1209;48.410;9.054;2023-04-21T06:35:01;95847.56;;;3.79;100.00
2397;BME280;1209;48.410;9.054;2023-04-21T06:37:26;95837.34;;;3.78;100.00
2397;BME280;1209;48.410;9.054;2023-04-21T06:39:52;95838.38;;;4.13;100.00
2397;BME280;1209;48.410;9.054;2023-04-21T06:42:17;95833.84;;;4.42;100.00
2397;BME280;1209;48.410;9.054;2023-04-21T06:44:42;95832.22;;;4.59;100.00
2397;BME280;1209;48.410;9.054;2023-04-21T06:47:08;95833.25;;;4.30;100.00
2397;BME280;1209;48.410;9.054;2023-04-21T06:49:33;95826.69;;;4.36;100.00
2397;BME280;1209;48.410;9.054;2023-04-21T06:51:59;95833.25;;;4.30;100.00
2397;BME280;1209;48.410;9.054;2023-04-21T06:54:24;95831.22;;;4.24;100.00
2397;BME280;1209;48.410;9.054;2023-04-21T06:56:49;95826.63;;;4.28;100.00
2397;BME280;1209;48.410;9.054;2023-04-21T06:59:15;95828.03;;;4.40;100.00
2397;BME280;1209;48.410;9.054;2023-04-21T07:01:40;95828.81;;;4.58;100.00
2397;BME280;1209;48.410;9.054;2023-04-21T07:04:06;95828.75;;;4.86;100.00
2397;BME280;1209;48.410;9.054;2023-04-21T07:06:31;95819.81;;;5.06;100.00
2397;BME280;1209;48.410;9.054;2023-04-21T07:08:56;95828.16;;;5.44;100.00
2397;BME280;1209;48.410;9.054;2023-04-21T07:11:22;95825.16;;;5.56;100.00
2397;BME280;1209;48.410;9.054;2023-04-21T07:13:47;95831.16;;;5.31;100.00
2397;BME280;1209;48.410;9.054;2023-04-21T07:16:12;95828.94;;;5.36;100.00
2397;BME280;1209;48.410;9.054;2023-04-21T07:18:39;95835.41;;;5.40;100.00
2397;BME280;1209;48.410;9.054;2023-04-21T07:21:04;95833.81;;;5.73;100.00
2397;BME280;1209;48.410;9.054;2023-04-21T07:23:30;95829.38;;;5.91;100.00
2397;BME280;1209;48.410;9.054;2023-04-21T07:25:55;95822.16;;;6.11;100.00
2397;BME280;1209;48.410;9.054;2023-04-21T07:28:20;95820.94;;;6.40;100.00
2397;BME280;1209;48.410;9.054;2023-04-21T07:30:46;95818.56;;;6.79;100.00
2397;BME280;1209;48.410;9.054;2023-04-21T07:33:12;95825.31;;;7.37;100.00
2397;BME280;1209;48.410;9.054;2023-04-21T07:35:38;95821.88;;;7.61;100.00
2397;BME280;1209;48.410;9.054;2023-04-21T07:38:03;95820.22;;;7.68;100.00
2397;BME280;1209;48.410;9.054;2023-04-21T07:40:28;95819.34;;;7.83;100.00
2397;BME280;1209;48.410;9.054;2023-04-21T07:42:58;95819.66;;;7.88;100.00
2397;BME280;1209;48.410;9.054;2023-04-21T07:45:23;95815.63;;;7.78;100.00
2397;BME280;1209;48.410;9.054;2023-04-21T07:47:49;95814.16;;;7.83;100.00
2397;BME280;1209;48.410;9.054;2023-04-21T07:50:14;95815.59;;;7.86;100.00
2397;BME280;1209;48.410;9.054;2023-04-21T07:52:40;95809.94;;;7.82;100.00
2397;BME280;1209;48.410;9.054;2023-04-21T07:55:05;95807.50;;;7.81;100.00
2397;BME280;1209;48.410;9.054;2023-04-21T07:57:31;95808.44;;;7.88;100.00
2397;BME280;1209;48.410;9.054;2023-04-21T07:59:58;95796.75;;;8.23;100.00
2397;BME280;1209;48.410;9.054;2023-04-21T08:02:23;95803.59;;;8.47;100.00
2397;BME280;1209;48.410;9.054;2023-04-21T08:04:49;95798.34;;;8.78;100.00
2397;BME280;1209;48.410;9.054;2023-04-21T08:07:14;95801.38;;;8.67;100.00
2397;BME280;1209;48.410;9.054;2023-04-21T08:09:39;95809.63;;;8.16;100.00
2397;BME280;1209;48.410;9.054;2023-04-21T08:12:05;95796.13;;;8.52;100.00
2397;BME280;1209;48.410;9.054;2023-04-21T08:14:30;95801.63;;;8.57;100.00
2397;BME280;1209;48.410;9.054;2023-04-21T08:16:56;95799.44;;;8.83;100.00
2397;BME280;1209;48.410;9.054;2023-04-21T08:19:21;95798.97;;;9.03;100.00
2397;BME280;1209;48.410;9.054;2023-04-21T08:21:47;95791.28;;;9.24;100.00
2397;BME280;1209;48.410;9.054;2023-04-21T08:24:12;95780.78;;;9.32;100.00
2397;BME280;1209;48.410;9.054;2023-04-21T08:26:37;95786.41;;;9.06;100.00
2397;BME280;1209;48.410;9.054;2023-04-21T08:29:03;95788.47;;;8.73;100.00
2397;BME280;1209;48.410;9.054;2023-04-21T08:31:31;95789.56;;;9.17;100.00
2397;BME280;1209;48.410;9.054;2023-04-21T08:33:56;95793.88;;;9.24;100.00
2397;BME280;1209;48.410;9.054;2023-04-21T08:36:22;95790.66;;;9.22;100.00
2397;BME280;1209;48.410;9.054;2023-04-21T08:38:47;95795.50;;;9.40;100.00
2397;BME280;1209;48.410;9.054;2023-04-21T08:41:13;95780.78;;;9.32;100.00
2397;BME280;1209;48.410;9.054;2023-04-21T08:43:38;95783.13;;;9.42;100.00
2397;BME280;1209;48.410;9.054;2023-04-21T08:46:07;95794.28;;;9.51;100.00
2397;BME280;1209;48.410;9.054;2023-04-21T08:48:36;95785.84;;;9.49;100.00
2397;BME280;1209;48.410;9.054;2023-04-21T08:51:03;95790.34;;;9.55;100.00
2397;BME280;1209;48.410;9.054;2023-04-21T08:53:29;95791.13;;;9.40;100.00
2397;BME280;1209;48.410;9.054;2023-04-21T08:55:55;95788.25;;;9.65;100.00
2397;BME280;1209;48.410;9.054;2023-04-21T08:58:21;95781.38;;;10.23;100.00
2397;BME280;1209;48.410;9.054;2023-04-21T09:00:48;95789.25;;;10.44;100.00
2397;BME280;1209;48.410;9.054;2023-04-21T09:03:20;95785.84;;;10.29;100.00
2397;BME280;1209;48.410;9.054;2023-04-21T09:05:59;95782.31;;;10.36;100.00
2397;BME280;1209;48.410;9.054;2023-04-21T09:08:26;95775.88;;;10.75;100.00
2397;BME280;1209;48.410;9.054;2023-04-21T09:10:53;95776.81;;;11.17;100.00
2397;BME280;1209;48.410;9.054;2023-04-21T09:13:19;95776.53;;;11.05;100.00
2397;BME280;1209;48.410;9.054;2023-04-21T09:15:49;95783.00;;;11.09;100.00
2397;BME280;1209;48.410;9.054;2023-04-21T09:18:18;95779.00;;;11.13;100.00
2397;BME280;1209;48.410;9.054;2023-04-21T09:20:45;95769.31;;;11.35;100.00
2397;BME280;1209;48.410;9.054;2023-04-21T09:23:12;95760.47;;;11.71;100.00
2397;BME280;1209;48.410;9.054;2023-04-21T09:25:39;95752.97;;;11.95;100.00
2397;BME280;1209;48.410;9.054;2023-04-21T09:28:09;95748.91;;;11.86;100.00
2397;BME280;1209;48.410;9.054;2023-04-21T09:30:35;95758.78;;;12.65;100.00
2397;BME280;1209;48.410;9.054;2023-04-21T09:33:01;95746.13;;;12.82;100.00
2397;BME280;1209;48.410;9.054;2023-04-21T09:35:27;95737.22;;;12.76;100.00
2397;BME280;1209;48.410;9.054;2023-04-21T09:37:53;95750.56;;;12.88;100.00
2397;BME280;1209;48.410;9.054;2023-04-21T09:40:25;95746.69;;;13.50;100.00
2397;BME280;1209;48.410;9.054;2023-04-21T09:42:52;95735.59;;;13.48;100.00
2397;BME280;1209;48.410;9.054;2023-04-21T09:45:18;95734.84;;;13.99;100.00
2397;BME280;1209;48.410;9.054;2023-04-21T09:47:45;95747.41;;;13.90;100.00
2397;BME280;1209;48.410;9.054;2023-04-21T09:50:13;95750.47;;;14.70;100.00
2397;BME280;1209;48.410;9.054;2023-04-21T09:52:40;95748.31;;;14.54;100.00
2397;BME280;1209;48.410;9.054;2023-04-21T09:55:10;95751.75;;;14.86;100.00
2397;BME280;1209;48.410;9.054;2023-04-21T09:57:37;95743.50;;;14.51;100.00
2397;BME280;1209;48.410;9.054;2023-04-21T10:00:06;95739.69;;;14.46;100.00
2397;BME280;1209;48.410;9.054;2023-04-21T10:02:42;95745.09;;;15.33;100.00
2397;BME280;1209;48.410;9.054;2023-04-21T10:05:08;95739.81;;;15.15;100.00
2397;BME280;1209;48.410;9.054;2023-04-21T10:07:34;95743.72;;;15.49;100.00
2397;BME280;1209;48.410;9.054;2023-04-21T10:10:00;95740.44;;;15.53;100.00
2397;BME280;1209;48.410;9.054;2023-04-21T10:12:26;95736.16;;;15.16;100.00
2397;BME280;1209;48.410;9.054;2023-04-21T10:14:52;95739.16;;;16.17;100.00
2397;BME280;1209;48.410;9.054;2023-04-21T10:17:21;95729.66;;;16.16;100.00
2397;BME280;1209;48.410;9.054;2023-04-21T10:19:52;95729.94;;;16.38;100.00
2397;BME280;1209;48.410;9.054;2023-04-21T10:22:32;95725.34;;;16.63;100.00
2397;BME280;1209;48.410;9.054;2023-04-21T10:24:59;95726.38;;;16.32;100.00
2397;BME280;1209;48.410;9.054;2023-04-21T10:27:35;95717.13;;;16.42;100.00
2397;BME280;1209;48.410;9.054;2023-04-21T10:30:17;95720.16;;;16.98;100.00
2397;BME280;1209;48.410;9.054;2023-04-21T10:32:43;95716.75;;;17.10;100.00
2397;BME280;1209;48.410;9.054;2023-04-21T10:35:11;95724.25;;;16.83;100.00
2397;BME280;1209;48.410;9.054;2023-04-21T10:37:39;95707.19;;;16.97;100.00
2397;BME280;1209;48.410;9.054;2023-04-21T10:40:07;95712.47;;;16.97;91.82
2397;BME280;1209;48.410;9.054;2023-04-21T10:42:51;95707.09;;;17.04;95.49
2397;BME280;1209;48.410;9.054;2023-04-21T10:45:16;95708.00;;;17.79;92.66
2397;BME280;1209;48.410;9.054;2023-04-21T10:47:45;95701.72;;;17.97;88.62
2397;BME280;1209;48.410;9.054;2023-04-21T10:50:23;95698.97;;;18.32;89.24
2397;BME280;1209;48.410;9.054;2023-04-21T10:52:54;95697.44;;;17.44;87.11
2397;BME280;1209;48.410;9.054;2023-04-21T10:55:21;95697.75;;;18.23;83.18
2397;BME280;1209;48.410;9.054;2023-04-21T10:57:47;95691.19;;;18.54;81.33
2397;BME280;1209;48.410;9.054;2023-04-21T11:00:23;95689.03;;;18.22;85.39
2397;BME280;1209;48.410;9.054;2023-04-21T11:02:56;95693.75;;;18.20;84.76
2397;BME280;1209;48.410;9.054;2023-04-21T11:05:26;95690.50;;;17.90;87.02
2397;BME280;1209;48.410;9.054;2023-04-21T11:08:03;95683.69;;;18.79;82.07
2397;BME280;1209;48.410;9.054;2023-04-21T11:10:29;95678.53;;;19.23;81.73
2397;BME280;1209;48.410;9.054;2023-04-21T11:12:56;95675.16;;;19.28;77.38
2397;BME280;1209;48.410;9.054;2023-04-21T11:15:21;95664.84;;;19.65;83.03
2397;BME280;1209;48.410;9.054;2023-04-21T11:17:47;95673.41;;;19.16;76.12
2397;BME280;1209;48.410;9.054;2023-04-21T11:20:13;95670.47;;;19.13;78.29
2397;BME280;1209;48.410;9.054;2023-04-21T11:22:38;95667.59;;;19.53;76.77
2397;BME280;1209;48.410;9.054;2023-04-21T11:25:04;95662.63;;;20.00;73.69
2397;BME280;1209;48.410;9.054;2023-04-21T11:27:32;95661.81;;;20.00;78.71
2397;BME280;1209;48.410;9.054;2023-04-21T11:29:57;95663.84;;;21.00;69.05
2397;BME280;1209;48.410;9.054;2023-04-21T11:32:23;95663.06;;;21.05;68.78
2397;BME280;1209;48.410;9.054;2023-04-21T11:34:49;95660.75;;;21.14;67.65
2397;BME280;1209;48.410;9.054;2023-04-21T11:37:20;95656.44;;;21.08;69.66
2397;BME280;1209;48.410;9.054;2023-04-21T11:39:45;95654.50;;;20.61;79.72
2397;BME280;1209;48.410;9.054;2023-04-21T11:42:20;95663.09;;;20.73;81.28
2397;BME280;1209;48.410;9.054;2023-04-21T11:44:45;95651.81;;;20.88;77.71
2397;BME280;1209;48.410;9.054;2023-04-21T11:47:15;95648.84;;;20.52;82.54
2397;BME280;1209;48.410;9.054;2023-04-21T11:49:49;95651.66;;;20.40;84.04
2397;BME280;1209;48.410;9.054;2023-04-21T11:52:23;95653.09;;;20.53;82.80
2397;BME280;1209;48.410;9.054;2023-04-21T11:54:56;95651.41;;;20.42;82.62
2397;BME280;1209;48.410;9.054;2023-04-21T11:57:23;95643.88;;;21.30;77.16
2397;BME280;1209;48.410;9.054;2023-04-21T11:59:50;95640.94;;;20.57;85.29
2397;BME280;1209;48.410;9.054;2023-04-21T12:02:24;95633.44;;;20.49;86.32
2397;BME280;1209;48.410;9.054;2023-04-21T12:04:57;95632.31;;;20.77;85.66
2397;BME280;1209;48.410;9.054;2023-04-21T12:07:24;95630.22;;;20.20;86.27
2397;BME280;1209;48.410;9.054;2023-04-21T12:09:52;95617.81;;;20.53;85.97
2397;BME280;1209;48.410;9.054;2023-04-21T12:12:17;95627.34;;;20.49;90.67
2397;BME280;1209;48.410;9.054;2023-04-21T12:14:44;95626.31;;;20.55;89.37
2397;BME280;1209;48.410;9.054;2023-04-21T12:17:09;95628.25;;;21.33;81.04
2397;BME280;1209;48.410;9.054;2023-04-21T12:19:40;95633.47;;;20.86;81.56
2397;BME280;1209;48.410;9.054;2023-04-21T12:22:09;95631.72;;;21.02;83.30
2397;BME280;1209;48.410;9.054;2023-04-21T12:24:35;95635.88;;;21.25;80.56
2397;BME280;1209;48.410;9.054;2023-04-21T12:27:00;95638.94;;;21.12;80.25
2397;BME280;1209;48.410;9.054;2023-04-21T12:29:26;95627.25;;;22.17;76.29
2397;BME280;1209;48.410;9.054;2023-04-21T12:31:52;95627.25;;;21.50;79.50
2397;BME280;1209;48.410;9.054;2023-04-21T12:34:17;95626.91;;;21.36;80.53
2397;BME280;1209;48.410;9.054;2023-04-21T12:36:43;95627.09;;;21.24;78.15
2397;BME280;1209;48.410;9.054;2023-04-21T12:39:08;95621.38;;;22.10;72.88
2397;BME280;1209;48.410;9.054;2023-04-21T12:41:34;95628.25;;;21.33;75.52
2397;BME280;1209;48.410;9.054;2023-04-21T12:43:59;95624.66;;;21.70;75.02
2397;BME280;1209;48.410;9.054;2023-04-21T12:46:24;95622.03;;;21.75;74.37
2397;BME280;1209;48.410;9.054;2023-04-21T12:48:50;95610.69;;;21.95;78.71
2397;BME280;1209;48.410;9.054;2023-04-21T12:51:16;95604.41;;;22.62;70.45
2397;BME280;1209;48.410;9.054;2023-04-21T12:53:42;95612.59;;;22.15;76.68
2397;BME280;1209;48.410;9.054;2023-04-21T12:56:07;95606.94;;;21.86;73.73
2397;BME280;1209;48.410;9.054;2023-04-21T12:58:32;95609.44;;;21.50;82.48
2397;BME280;1209;48.410;9.054;2023-04-21T13:00:58;95615.72;;;21.91;76.99
2397;BME280;1209;48.410;9.054;2023-04-21T13:03:23;95604.94;;;22.54;73.09
2397;BME280;1209;48.410;9.054;2023-04-21T13:05:51;95611.59;;;22.31;74.66
2397;BME280;1209;48.410;9.054;2023-04-21T13:08:16;95608.44;;;22.85;69.02
2397;BME280;1209;48.410;9.054;2023-04-21T13:10:42;95600.16;;;22.46;67.96
2397;BME280;1209;48.410;9.054;2023-04-21T13:13:08;95597.22;;;22.37;72.42
2397;BME280;1209;48.410;9.054;2023-04-21T13:15:34;95595.34;;;22.27;77.68